createdAt,value
2017-06-01T00:01:27.031Z,2.72
2017-06-01T00:03:54.711Z,3.54
2017-06-01T00:06:22.228Z,3.06
2017-06-01T00:08:49.896Z,3.82
2017-06-01T00:11:17.415Z,2.70
2017-06-01T00:13:44.943Z,3.10
2017-06-01T00:16:12.489Z,3.00
2017-06-01T00:18:40.007Z,3.08
2017-06-01T00:21:07.568Z,3.08
2017-06-01T00:23:35.084Z,3.18
2017-06-01T00:26:02.602Z,3.42
2017-06-01T00:28:30.146Z,2.94
2017-06-01T00:30:57.739Z,3.32
2017-06-01T00:33:25.412Z,3.32
2017-06-01T00:35:52.958Z,2.94
2017-06-01T00:38:20.484Z,3.02
2017-06-01T00:40:48.035Z,3.04
2017-06-01T00:43:15.563Z,2.98
2017-06-01T00:45:43.111Z,3.72
2017-06-01T00:48:10.706Z,4.00
2017-06-01T00:50:38.194Z,2.88
2017-06-01T00:53:05.708Z,3.30
2017-06-01T00:55:33.275Z,3.22
2017-06-01T00:58:00.811Z,3.14
2017-06-01T01:00:28.341Z,3.30
2017-06-01T01:02:55.924Z,3.40
2017-06-01T01:05:23.467Z,3.48
2017-06-01T01:07:51.018Z,3.68
2017-06-01T01:10:18.540Z,2.82
2017-06-01T01:12:46.131Z,3.98
2017-06-01T01:15:13.658Z,2.52
2017-06-01T01:17:41.188Z,3.56
2017-06-01T01:20:08.722Z,3.60
2017-06-01T01:22:36.339Z,2.88
2017-06-01T01:25:03.912Z,2.86
2017-06-01T01:27:31.448Z,3.10
2017-06-01T01:29:59.047Z,3.10
2017-06-01T01:32:26.563Z,3.42
2017-06-01T01:34:54.115Z,2.98
2017-06-01T01:37:21.625Z,3.74
2017-06-01T01:39:49.215Z,3.50
2017-06-01T01:42:16.759Z,3.08
2017-06-01T01:44:44.272Z,3.00
2017-06-01T01:47:11.806Z,3.04
2017-06-01T01:49:39.360Z,3.44
2017-06-01T01:52:06.899Z,3.48
2017-06-01T01:54:34.404Z,3.24
2017-06-01T01:57:01.995Z,3.56
2017-06-01T01:59:29.553Z,4.50
2017-06-01T02:01:57.153Z,3.60
2017-06-01T02:04:24.688Z,3.72
2017-06-01T02:06:52.218Z,3.98
2017-06-01T02:09:19.763Z,3.44
2017-06-01T02:11:47.315Z,3.56
2017-06-01T02:14:14.959Z,3.48
2017-06-01T02:16:42.504Z,3.68
2017-06-01T02:19:10.011Z,3.90
2017-06-01T02:21:37.546Z,3.28
2017-06-01T02:24:05.112Z,3.84
2017-06-01T02:26:32.651Z,3.14
2017-06-01T02:29:00.168Z,3.52
2017-06-01T02:31:27.731Z,3.76
2017-06-01T02:33:55.244Z,3.98
2017-06-01T02:36:22.743Z,3.54
2017-06-01T02:38:50.307Z,3.36
2017-06-01T02:41:17.827Z,3.74
2017-06-01T02:43:45.703Z,3.76
2017-06-01T02:46:13.215Z,4.48
2017-06-01T02:48:40.751Z,3.04
2017-06-01T02:51:08.284Z,3.26
2017-06-01T02:53:36.237Z,3.82
2017-06-01T02:56:03.755Z,5.22
2017-06-01T02:58:31.327Z,3.90
2017-06-01T03:00:58.852Z,3.80
2017-06-01T03:03:26.355Z,3.60
2017-06-01T03:05:53.895Z,5.22
2017-06-01T03:08:21.473Z,4.06
2017-06-01T03:10:48.965Z,4.28
2017-06-01T03:13:16.484Z,3.60
2017-06-01T03:15:44.036Z,3.90
2017-06-01T03:18:11.560Z,5.32
2017-06-01T03:20:39.083Z,4.42
2017-06-01T03:23:06.635Z,5.00
2017-06-01T03:25:34.159Z,4.30
2017-06-01T03:28:01.715Z,5.00
2017-06-01T03:30:29.239Z,4.78
2017-06-01T03:32:56.839Z,5.52
2017-06-01T03:35:24.463Z,4.82
2017-06-01T03:37:51.997Z,4.50
2017-06-01T03:40:19.584Z,5.08
2017-06-01T03:42:47.108Z,4.66
2017-06-01T03:45:14.668Z,4.52
2017-06-01T03:47:42.187Z,5.12
2017-06-01T03:50:09.699Z,5.02
2017-06-01T03:52:37.279Z,4.88
2017-06-01T03:55:04.824Z,5.70
2017-06-01T03:57:32.398Z,6.08
2017-06-01T03:59:59.912Z,6.32
2017-06-01T04:02:27.419Z,5.56
2017-06-01T04:04:54.963Z,5.30
2017-06-01T04:07:22.540Z,5.26
2017-06-01T04:09:50.106Z,4.76
2017-06-01T04:12:17.626Z,5.64
2017-06-01T04:14:45.167Z,5.92
2017-06-01T04:17:12.682Z,30.46
2017-06-01T04:19:40.250Z,12.06
2017-06-01T04:22:07.772Z,8.76
2017-06-01T04:24:35.388Z,5.58
2017-06-01T04:27:02.952Z,5.10
2017-06-01T04:29:30.521Z,4.70
2017-06-01T04:31:58.110Z,5.36
2017-06-01T04:34:25.643Z,5.68
2017-06-01T04:36:53.283Z,7.88
2017-06-01T04:39:20.827Z,6.66
2017-06-01T04:41:48.353Z,5.64
2017-06-01T04:44:15.903Z,5.86
2017-06-01T04:46:43.441Z,6.90
2017-06-01T04:49:10.987Z,6.70
2017-06-01T04:51:38.513Z,12.50
2017-06-01T04:54:06.071Z,36.10
2017-06-01T04:56:33.577Z,8.48
2017-06-01T04:59:01.172Z,7.36
2017-06-01T05:01:28.699Z,6.34
2017-06-01T05:03:56.227Z,7.80
2017-06-01T05:06:23.749Z,6.48
2017-06-01T05:08:51.308Z,7.06
2017-06-01T05:11:18.876Z,6.90
2017-06-01T05:13:46.395Z,9.28
2017-06-01T05:16:13.920Z,14.12
2017-06-01T05:18:41.468Z,11.68
2017-06-01T05:21:09.019Z,7.42
2017-06-01T05:23:37.203Z,7.48
2017-06-01T05:26:04.799Z,6.58
2017-06-01T05:28:33.192Z,6.80
2017-06-01T05:31:00.904Z,6.90
2017-06-01T05:33:28.425Z,8.76
2017-06-01T05:35:55.972Z,7.02
2017-06-01T05:38:23.501Z,6.58
2017-06-01T05:40:51.253Z,6.00
2017-06-01T05:43:18.771Z,7.06
2017-06-01T05:45:46.325Z,6.38
2017-06-01T05:48:13.852Z,7.36
2017-06-01T05:50:41.608Z,7.70
2017-06-01T05:53:09.155Z,7.24
2017-06-01T05:55:38.483Z,6.98
2017-06-01T05:58:06.606Z,6.06
2017-06-01T06:00:36.308Z,7.22
2017-06-01T06:03:04.195Z,6.78
2017-06-01T06:05:35.018Z,6.16
2017-06-01T06:08:02.621Z,5.62
2017-06-01T06:10:30.171Z,5.04
2017-06-01T06:12:57.698Z,6.68
2017-06-01T06:15:25.347Z,5.58
2017-06-01T06:17:52.975Z,6.62
2017-06-01T06:20:20.523Z,7.22
2017-06-01T06:22:48.051Z,5.56
2017-06-01T06:25:15.611Z,5.88
2017-06-01T06:27:43.131Z,6.20
2017-06-01T06:30:10.680Z,6.32
2017-06-01T06:32:38.319Z,6.20
2017-06-01T06:35:05.892Z,6.48
2017-06-01T06:37:33.473Z,6.38
2017-06-01T06:40:00.987Z,6.58
2017-06-01T06:42:28.550Z,7.18
2017-06-01T06:44:56.066Z,6.56
2017-06-01T06:47:23.616Z,7.38
2017-06-01T06:49:51.147Z,7.06
2017-06-01T06:52:18.695Z,6.30
2017-06-01T06:54:46.312Z,5.92
2017-06-01T06:57:13.900Z,6.80
2017-06-01T06:59:41.416Z,7.14
2017-06-01T07:02:09.383Z,6.66
2017-06-01T07:04:36.943Z,6.04
2017-06-01T07:07:04.568Z,6.38
2017-06-01T07:09:32.246Z,7.30
2017-06-01T07:11:59.779Z,6.32
2017-06-01T07:14:27.471Z,6.40
2017-06-01T07:16:55.755Z,7.30
2017-06-01T07:19:23.344Z,6.70
2017-06-01T07:21:50.871Z,8.52
2017-06-01T07:24:18.427Z,6.70
2017-06-01T07:26:45.979Z,6.74
2017-06-01T07:29:13.502Z,6.26
2017-06-01T07:31:41.067Z,6.68
2017-06-01T07:34:08.587Z,7.84
2017-06-01T07:36:36.147Z,7.70
2017-06-01T07:39:03.652Z,7.72
2017-06-01T07:41:31.206Z,7.40
2017-06-01T07:43:58.731Z,7.64
2017-06-01T07:46:26.289Z,6.54
2017-06-01T07:48:53.837Z,6.64
2017-06-01T07:51:21.403Z,8.40
2017-06-01T07:53:48.928Z,8.82
2017-06-01T07:56:16.486Z,6.78
2017-06-01T07:58:44.085Z,7.80
2017-06-01T08:01:11.679Z,8.72
2017-06-01T08:03:39.291Z,7.06
2017-06-01T08:06:06.865Z,6.56
2017-06-01T08:08:34.445Z,7.00
2017-06-01T08:11:02.081Z,7.96
2017-06-01T08:13:29.631Z,7.60
2017-06-01T08:15:57.208Z,8.44
2017-06-01T08:18:24.769Z,8.00
2017-06-01T08:20:52.349Z,8.28
2017-06-01T08:23:19.871Z,8.88
2017-06-01T08:25:47.395Z,8.46
2017-06-01T08:28:14.946Z,8.76
2017-06-01T08:30:42.475Z,9.42
2017-06-01T08:33:10.034Z,9.76
2017-06-01T08:35:37.556Z,9.84
2017-06-01T08:38:05.135Z,11.18
2017-06-01T08:40:32.674Z,11.12
2017-06-01T08:43:00.224Z,9.56
2017-06-01T08:45:27.784Z,11.90
2017-06-01T08:47:55.315Z,10.10
2017-06-01T08:50:22.875Z,10.56
2017-06-01T08:52:50.435Z,11.12
2017-06-01T08:55:17.995Z,12.28
2017-06-01T08:57:45.536Z,12.42
2017-06-01T09:00:13.122Z,13.94
2017-06-01T09:02:40.664Z,11.66
2017-06-01T09:05:08.204Z,11.22
2017-06-01T09:07:35.807Z,10.52
2017-06-01T09:10:03.851Z,10.90
2017-06-01T09:12:31.413Z,11.86
2017-06-01T09:14:58.960Z,9.58
2017-06-01T09:17:26.528Z,11.44
2017-06-01T09:19:54.059Z,14.20
2017-06-01T09:22:21.612Z,14.94
2017-06-01T09:24:49.181Z,16.80
2017-06-01T09:27:16.705Z,14.46
2017-06-01T09:29:44.280Z,12.36
2017-06-01T09:32:11.814Z,10.94
2017-06-01T09:34:39.346Z,10.90
2017-06-01T09:37:06.906Z,11.90
2017-06-01T09:39:34.436Z,13.18
2017-06-01T09:42:01.988Z,12.18
2017-06-01T09:44:29.522Z,14.84
2017-06-01T09:46:57.115Z,15.98
2017-06-01T09:49:24.659Z,13.62
2017-06-01T09:51:52.250Z,12.90
2017-06-01T09:54:19.820Z,15.50
2017-06-01T09:56:47.411Z,14.44
2017-06-01T09:59:14.980Z,14.96
2017-06-01T10:01:42.512Z,14.72
2017-06-01T10:04:10.100Z,15.40
2017-06-01T10:06:37.688Z,14.46
2017-06-01T10:09:05.211Z,11.80
2017-06-01T10:11:32.803Z,12.30
2017-06-01T10:14:00.321Z,15.44
2017-06-01T10:16:27.894Z,13.04
2017-06-01T10:18:55.432Z,15.00
2017-06-01T10:21:23.004Z,15.80
2017-06-01T10:23:50.531Z,14.86
2017-06-01T10:26:18.116Z,15.56
2017-06-01T10:28:45.655Z,15.32
2017-06-01T10:31:13.238Z,15.26
2017-06-01T10:33:40.769Z,13.18
2017-06-01T10:36:08.295Z,15.32
2017-06-01T10:38:35.867Z,16.18
2017-06-01T10:41:03.408Z,14.32
2017-06-01T10:43:30.967Z,13.00
2017-06-01T10:45:58.502Z,15.00
2017-06-01T10:48:26.073Z,13.40
2017-06-01T10:50:53.614Z,14.38
2017-06-01T10:53:21.224Z,17.34
2017-06-01T10:55:48.845Z,17.02
2017-06-01T10:58:16.365Z,14.10
2017-06-01T11:00:43.965Z,13.92
2017-06-01T11:03:11.535Z,15.14
2017-06-01T11:05:39.101Z,14.88
2017-06-01T11:08:06.635Z,11.20
2017-06-01T11:10:34.192Z,11.90
2017-06-01T11:13:01.751Z,13.96
2017-06-01T11:15:29.382Z,14.40
2017-06-01T11:17:56.930Z,13.82
2017-06-01T11:20:24.574Z,13.96
2017-06-01T11:22:52.159Z,12.82
2017-06-01T11:25:19.709Z,17.46
2017-06-01T11:27:47.235Z,17.20
2017-06-01T11:30:14.921Z,16.08
2017-06-01T11:32:42.460Z,15.54
2017-06-01T11:35:10.426Z,16.82
2017-06-01T11:37:38.011Z,13.96
2017-06-01T11:40:05.546Z,14.10
2017-06-01T11:42:33.120Z,14.46
2017-06-01T11:45:00.649Z,13.40
2017-06-01T11:47:28.183Z,13.30
2017-06-01T11:49:55.731Z,13.78
2017-06-01T11:52:23.272Z,15.68
2017-06-01T11:54:50.839Z,15.80
2017-06-01T11:57:18.375Z,17.76
2017-06-01T11:59:46.007Z,21.38
2017-06-01T12:02:13.583Z,27.68
2017-06-01T12:04:41.107Z,17.08
2017-06-01T12:07:08.668Z,16.76
2017-06-01T12:09:36.239Z,12.90
2017-06-01T12:12:03.800Z,16.00
2017-06-01T12:14:31.315Z,18.24
2017-06-01T12:16:58.888Z,16.60
2017-06-01T12:19:26.544Z,17.82
2017-06-01T12:21:54.084Z,18.98
2017-06-01T12:24:21.630Z,19.08
2017-06-01T12:26:49.163Z,16.62
2017-06-01T12:29:16.719Z,17.32
2017-06-01T12:31:44.265Z,13.56
2017-06-01T12:34:11.820Z,12.40
2017-06-01T12:36:39.340Z,34.62
2017-06-01T12:39:07.235Z,19.66
2017-06-01T12:41:34.756Z,13.02
2017-06-01T12:44:02.303Z,12.94
2017-06-01T12:46:29.875Z,10.90
2017-06-01T12:48:57.439Z,13.16
2017-06-01T12:51:25.007Z,10.10
2017-06-01T12:53:52.526Z,10.68
2017-06-01T12:56:20.081Z,13.10
2017-06-01T12:58:47.610Z,12.18
2017-06-01T13:01:15.184Z,12.70
2017-06-01T13:03:42.708Z,10.08
2017-06-01T13:06:10.224Z,9.72
2017-06-01T13:08:37.815Z,10.32
2017-06-01T13:11:05.332Z,12.50
2017-06-01T13:13:32.903Z,11.92
2017-06-01T13:16:00.436Z,16.80
2017-06-01T13:18:28.143Z,15.74
2017-06-01T13:20:55.672Z,16.00
2017-06-01T13:23:23.219Z,13.12
2017-06-01T13:25:50.800Z,12.16
2017-06-01T13:28:18.336Z,12.02
2017-06-01T13:30:45.858Z,14.00
2017-06-01T13:33:13.431Z,14.16
2017-06-01T13:35:41.005Z,12.10
2017-06-01T13:38:08.627Z,12.54
2017-06-01T13:40:36.155Z,12.10
2017-06-01T13:43:03.719Z,10.46
2017-06-01T13:45:31.263Z,13.80
2017-06-01T13:47:59.180Z,12.80
2017-06-01T13:50:26.711Z,10.84
2017-06-01T13:52:54.231Z,9.42
2017-06-01T13:55:21.793Z,15.28
2017-06-01T13:57:49.367Z,11.72
2017-06-01T14:00:16.916Z,12.52
2017-06-01T14:02:44.441Z,10.50
2017-06-01T14:05:11.999Z,11.00
2017-06-01T14:07:39.516Z,9.18
2017-06-01T14:10:07.076Z,13.72
2017-06-01T14:12:34.615Z,13.20
2017-06-01T14:15:02.271Z,13.88
2017-06-01T14:17:29.800Z,14.00
2017-06-01T14:19:57.348Z,13.86
2017-06-01T14:22:24.935Z,12.28
2017-06-01T14:24:52.474Z,15.02
2017-06-01T14:27:20.080Z,14.00
2017-06-01T14:29:47.612Z,12.98
2017-06-01T14:32:15.175Z,10.70
2017-06-01T14:34:42.737Z,11.78
2017-06-01T14:37:10.341Z,8.42
2017-06-01T14:39:37.876Z,11.06
2017-06-01T14:42:05.431Z,7.04
2017-06-01T14:44:32.956Z,10.90
2017-06-01T14:47:00.553Z,11.16
2017-06-01T14:49:28.059Z,9.20
2017-06-01T14:51:55.563Z,8.02
2017-06-01T14:54:23.140Z,7.40
2017-06-01T14:56:50.655Z,8.10
2017-06-01T14:59:18.212Z,8.74
2017-06-01T15:01:45.746Z,7.92
2017-06-01T15:04:13.298Z,6.72
2017-06-01T15:06:40.816Z,7.62
2017-06-01T15:09:08.343Z,8.24
2017-06-01T15:11:35.957Z,7.50
2017-06-01T15:14:03.491Z,6.94
2017-06-01T15:16:31.023Z,7.38
2017-06-01T15:18:58.588Z,7.10
2017-06-01T15:21:26.104Z,5.98
2017-06-01T15:23:53.675Z,7.50
2017-06-01T15:26:21.205Z,8.60
2017-06-01T15:28:48.714Z,5.68
2017-06-01T15:31:16.275Z,5.34
2017-06-01T15:33:43.787Z,5.48
2017-06-01T15:36:11.362Z,5.90
2017-06-01T15:38:38.960Z,7.54
2017-06-01T15:41:06.651Z,6.28
2017-06-01T15:43:34.202Z,6.30
2017-06-01T15:46:01.829Z,6.24
2017-06-01T15:48:29.412Z,5.64
2017-06-01T15:50:57.055Z,5.78
2017-06-01T15:53:24.580Z,4.80
2017-06-01T15:55:52.298Z,5.20
2017-06-01T15:58:19.829Z,5.18
2017-06-01T16:00:47.352Z,4.68
2017-06-01T16:03:14.915Z,4.90
2017-06-01T16:05:42.464Z,5.14
2017-06-01T16:08:10.136Z,5.66
2017-06-01T16:10:37.673Z,6.22
2017-06-01T16:13:05.183Z,6.42
2017-06-01T16:15:32.855Z,6.54
2017-06-01T16:18:00.386Z,4.66
2017-06-01T16:20:28.016Z,4.52
2017-06-01T16:22:55.591Z,6.24
2017-06-01T16:25:23.125Z,3.80
2017-06-01T16:27:50.785Z,4.30
2017-06-01T16:30:18.319Z,4.50
2017-06-01T16:32:45.863Z,4.06
2017-06-01T16:35:13.509Z,4.72
2017-06-01T16:37:41.035Z,3.64
2017-06-01T16:40:08.731Z,5.34
2017-06-01T16:42:36.251Z,4.12
2017-06-01T16:45:03.763Z,4.56
2017-06-01T16:47:31.344Z,4.70
2017-06-01T16:49:58.868Z,3.50
2017-06-01T16:52:26.446Z,4.10
2017-06-01T16:54:53.970Z,4.58
2017-06-01T16:57:21.505Z,4.80
2017-06-01T16:59:49.056Z,4.50
2017-06-01T17:02:16.593Z,5.88
2017-06-01T17:04:44.154Z,5.24
2017-06-01T17:07:11.701Z,4.34
2017-06-01T17:09:39.312Z,4.78
2017-06-01T17:12:06.883Z,4.38
2017-06-01T17:14:34.395Z,4.00
2017-06-01T17:17:01.970Z,4.60
2017-06-01T17:19:29.501Z,3.50
2017-06-01T17:21:57.029Z,4.80
2017-06-01T17:24:24.603Z,4.22
2017-06-01T17:26:52.135Z,4.38
2017-06-01T17:29:19.704Z,5.46
2017-06-01T17:31:47.224Z,4.10
2017-06-01T17:34:15.136Z,4.52
2017-06-01T17:36:42.677Z,4.98
2017-06-01T17:39:10.530Z,4.18
2017-06-01T17:41:38.428Z,8.08
2017-06-01T17:44:06.001Z,4.26
2017-06-01T17:46:33.619Z,8.98
2017-06-01T17:49:01.236Z,5.22
2017-06-01T17:51:28.836Z,3.82
2017-06-01T17:53:56.520Z,3.08
2017-06-01T17:56:24.239Z,4.30
2017-06-01T17:58:51.800Z,3.36
2017-06-01T18:01:19.336Z,3.60
2017-06-01T18:03:47.068Z,3.44
2017-06-01T18:06:14.600Z,3.56
2017-06-01T18:08:42.428Z,3.44
2017-06-01T18:11:10.016Z,3.52
2017-06-01T18:13:37.580Z,4.10
2017-06-01T18:16:07.067Z,3.12
2017-06-01T18:18:34.701Z,3.20
2017-06-01T18:21:02.307Z,3.38
2017-06-01T18:23:29.839Z,3.02
2017-06-01T18:25:57.375Z,4.12
2017-06-01T18:28:25.028Z,3.44
2017-06-01T18:30:52.546Z,3.52
2017-06-01T18:33:20.122Z,3.68
2017-06-01T18:35:47.656Z,4.12
2017-06-01T18:38:15.662Z,4.12
2017-06-01T18:40:43.256Z,3.40
2017-06-01T18:43:10.781Z,3.24
2017-06-01T18:45:38.361Z,3.52
2017-06-01T18:48:05.895Z,3.78
2017-06-01T18:50:33.831Z,5.20
2017-06-01T18:53:01.420Z,3.62
2017-06-01T18:55:29.015Z,3.10
2017-06-01T18:57:56.573Z,2.92
2017-06-01T19:00:24.107Z,3.52
2017-06-01T19:02:51.672Z,4.52
2017-06-01T19:05:19.312Z,58.92
2017-06-01T19:07:47.051Z,10.28
2017-06-01T19:10:14.585Z,4.00
2017-06-01T19:12:42.110Z,3.70
2017-06-01T19:15:09.699Z,3.48
2017-06-01T19:17:37.240Z,4.14
2017-06-01T19:20:04.856Z,3.38
2017-06-01T19:22:32.388Z,3.98
2017-06-01T19:25:00.128Z,3.58
2017-06-01T19:27:27.663Z,3.96
2017-06-01T19:29:55.247Z,3.22
2017-06-01T19:32:22.820Z,4.10
2017-06-01T19:34:50.362Z,3.56
2017-06-01T19:37:18.073Z,3.58
2017-06-01T19:39:45.598Z,7.98
2017-06-01T19:42:13.137Z,49.38
2017-06-01T19:44:40.795Z,6.78
2017-06-01T19:47:08.333Z,3.28
2017-06-01T19:49:35.924Z,4.26
2017-06-01T19:52:03.496Z,3.58
2017-06-01T19:54:31.027Z,3.58
2017-06-01T19:56:58.627Z,3.20
2017-06-01T19:59:26.257Z,4.22
2017-06-01T20:01:54.169Z,4.70
2017-06-01T20:04:21.740Z,4.32
2017-06-01T20:06:50.066Z,4.00
2017-06-01T20:09:17.744Z,3.76
2017-06-01T20:11:45.282Z,4.44
2017-06-01T20:14:13.034Z,5.10
2017-06-01T20:16:40.596Z,4.28
2017-06-01T20:19:08.161Z,4.02
2017-06-01T20:21:35.876Z,4.64
2017-06-01T20:24:03.738Z,4.84
2017-06-01T20:26:31.540Z,4.50
2017-06-01T20:28:59.190Z,4.42
2017-06-01T20:31:26.885Z,4.36
2017-06-01T20:33:54.659Z,5.02
2017-06-01T20:36:22.542Z,4.42
2017-06-01T20:38:50.385Z,3.98
2017-06-01T20:41:18.626Z,4.84
2017-06-01T20:43:46.309Z,4.40
2017-06-01T20:46:13.887Z,4.40
2017-06-01T20:48:41.945Z,5.40
2017-06-01T20:51:09.520Z,4.96
2017-06-01T20:53:38.100Z,4.74
2017-06-01T20:56:05.722Z,4.34
2017-06-01T20:58:33.451Z,4.88
2017-06-01T21:01:01.184Z,4.98
2017-06-01T21:03:28.713Z,5.24
2017-06-01T21:05:56.275Z,4.40
2017-06-01T21:08:23.899Z,4.42
2017-06-01T21:10:51.430Z,4.72
2017-06-01T21:13:18.986Z,4.48
2017-06-01T21:15:46.532Z,4.84
2017-06-01T21:18:14.122Z,5.08
2017-06-01T21:20:41.657Z,4.78
2017-06-01T21:23:09.328Z,5.42
2017-06-01T21:25:36.862Z,4.90
2017-06-01T21:28:04.387Z,4.80
2017-06-01T21:30:32.003Z,5.36
2017-06-01T21:32:59.541Z,4.96
2017-06-01T21:35:27.225Z,5.66
2017-06-01T21:37:54.760Z,5.28
2017-06-01T21:40:22.312Z,5.38
2017-06-01T21:42:49.875Z,5.94
2017-06-01T21:45:17.404Z,5.36
2017-06-01T21:47:45.140Z,4.64
2017-06-01T21:50:13.029Z,5.14
2017-06-01T21:52:40.570Z,5.36
2017-06-01T21:55:08.146Z,4.22
2017-06-01T21:57:35.703Z,5.28
2017-06-01T22:00:03.323Z,4.90
2017-06-01T22:02:30.996Z,5.10
2017-06-01T22:04:58.823Z,5.60
2017-06-01T22:07:26.408Z,5.88
2017-06-01T22:09:53.952Z,4.90
2017-06-01T22:12:21.577Z,5.28
2017-06-01T22:14:49.215Z,6.00
2017-06-01T22:17:16.781Z,4.68
2017-06-01T22:19:44.315Z,6.06
2017-06-01T22:22:11.992Z,5.86
2017-06-01T22:24:39.522Z,5.00
2017-06-01T22:27:07.046Z,5.70
2017-06-01T22:29:34.675Z,4.72
2017-06-01T22:32:02.228Z,6.06
2017-06-01T22:34:29.891Z,5.42
2017-06-01T22:36:57.431Z,6.42
2017-06-01T22:39:24.966Z,5.88
2017-06-01T22:41:52.523Z,6.48
2017-06-01T22:44:20.081Z,5.46
2017-06-01T22:46:47.668Z,5.22
2017-06-01T22:49:15.332Z,5.56
2017-06-01T22:51:43.012Z,6.28
2017-06-01T22:54:10.527Z,5.74
2017-06-01T22:56:38.346Z,6.88
2017-06-01T22:59:05.864Z,6.12
2017-06-01T23:01:33.423Z,6.72
2017-06-01T23:04:01.019Z,6.18
2017-06-01T23:06:28.559Z,6.58
2017-06-01T23:08:56.344Z,6.68
2017-06-01T23:11:23.906Z,6.28
2017-06-01T23:13:51.416Z,5.78
2017-06-01T23:16:18.987Z,6.10
2017-06-01T23:18:46.532Z,6.54
2017-06-01T23:21:14.171Z,5.50
2017-06-01T23:23:41.718Z,6.38
2017-06-01T23:26:09.282Z,6.60
2017-06-01T23:28:36.812Z,5.88
2017-06-01T23:31:04.378Z,7.02
2017-06-01T23:33:31.896Z,7.26
2017-06-01T23:35:59.455Z,6.20
2017-06-01T23:38:27.000Z,6.20
2017-06-01T23:40:54.604Z,7.60
2017-06-01T23:43:22.143Z,7.38
2017-06-01T23:45:49.753Z,6.44
2017-06-01T23:48:17.382Z,6.82
2017-06-01T23:50:44.907Z,6.58
2017-06-01T23:53:12.487Z,6.42
2017-06-01T23:55:40.010Z,6.90
2017-06-01T23:58:07.595Z,7.28
